Teruel, Spain
Current Conditions -  °F | °C
As of 6:00 AM on Saturday 25 Oct 2014 (Local Time) from LETL Reporting Station
Clear Clear  
Wind Chill: 48°   Ceiling: Unl
Heat Index: 48°   Visibility: 6mi
Dew Point: 39°   Wind: 1mph
Humidity: 71%   Direction: 240°WSW
Pressure: 30.21"   Gusts: NA
Location:  40.34°N, 1.11°W
Report Text: LETL 250400Z AUTO 24001KT CAVOK 09/04 Q1023
Loading
Personal Weather Stations






























Interactive Weather Map
Tropical Storm Tracking
New forecast layout! Learn more

10-Day Weather Forecast

Advertisements
Track Severe Weather on mobile